Home > Products > Valid Products > TAF

000
FTUS45 KTWC 012300
TAFOLS
TAF
KOLS 012334Z 0200/0224 22015G25KT P6SM FEW090 SCT250
     FM020200 20007KT P6SM SKC
     FM020700 VRB03KT P6SM SCT250
     FM021700 21014G22KT P6SM BKN250
     FM022100 24017G27KT P6SM BKN250=



000
FTUS45 KTWC 012300
TAFDUG
TAF
KDUG 012334Z 0200/0224 24015G25KT P6SM SCT080 SCT250
     FM020200 27009KT P6SM FEW080
     FM020700 18006KT P6SM SKC
     FM021500 21010KT P6SM SCT250
     FM021800 23015G25KT P6SM BKN250
     FM022100 25022G32KT P6SM BKN250=



000
FTUS45 KTWC 012300
TAFTUS
TAF
KTUS 012334Z 0200/0224 27014G22KT P6SM FEW100 SCT250
     FM020200 27007KT P6SM SKC
     FM020900 15007KT P6SM SCT250
     FM021700 23012G20KT P6SM BKN250
     FM022100 27015G25KT P6SM BKN250=



000
FTUS45 KTWC 012300
TAFOLS
TAF
KOLS 012334Z 0200/0224 22015G25KT P6SM FEW090 SCT250
     FM020200 20007KT P6SM SKC
     FM020700 VRB03KT P6SM SCT250
     FM021700 21014G22KT P6SM BKN250
     FM022100 24017G27KT P6SM BKN250=



000
FTUS45 KTWC 011700
TAFTUS
TAF
KTUS 011730Z 0118/0218 18010G18KT P6SM SKC
     FM012000 24015G24KT P6SM FEW100
     FM020200 25007KT P6SM SKC
     FM020800 14007KT P6SM SCT250
     FM021700 24012G20KT P6SM BKN250=



000
FTUS45 KTWC 011700
TAFDUG
TAF
KDUG 011730Z 0118/0218 19010KT P6SM FEW200
     FM012000 25017G25KT P6SM SCT070
     FM020200 28008KT P6SM FEW100
     FM021000 VRB04KT P6SM FEW200
     FM021700 23015G25KT P6SM SCT200=



000
FTUS45 KTWC 011700
TAFOLS
TAF
KOLS 011730Z 0118/0218 18010G18KT P6SM SKC
     FM012000 22016G25KT P6SM FEW090
     FM020200 20007KT P6SM SKC
     FM020800 VRB03KT P6SM SCT250
     FM021700 23014G24KT P6SM BKN250=



000
FTUS45 KTWC 011700
TAFOLS
TAF
KOLS 011730Z 0118/0218 18010G18KT P6SM SKC
     FM012000 22016G25KT P6SM FEW090
     FM020200 20007KT P6SM SKC
     FM020800 VRB03KT P6SM SCT250
     FM021700 23014G24KT P6SM BKN250=



000
FTUS45 KTWC 011700
TAFOLS
TAF
KOLS 011730Z 0118/0218 18010G18KT P6SM SKC
     FM012000 22016G25KT P6SM FEW090
     FM020200 20007KT P6SM SKC
     FM020800 VRB03KT P6SM SCT250
     FM021700 23014G24KT P6SM BKN250=



000
FTUS45 KTWC 011700
TAFOLS
TAF
KOLS 011730Z 0118/0218 18010G18KT P6SM SKC
     FM012000 22016G25KT P6SM FEW090
     FM020200 20007KT P6SM SKC
     FM020800 VRB03KT P6SM SCT250
     FM021700 23014G24KT P6SM BKN250=



000
FTUS45 KTWC 011700
TAFTUS
TAF
KTUS 011730Z 0118/0218 18010G18KT P6SM SKC
     FM012000 24015G24KT P6SM FEW100
     FM020200 25007KT P6SM SKC
     FM020800 14007KT P6SM SCT250
     FM021700 24012G20KT P6SM BKN250=



000
FTUS45 KTWC 011700
TAFDUG
TAF
KDUG 011730Z 0118/0218 19010KT P6SM FEW200
     FM012000 25017G25KT P6SM SCT070
     FM020200 28008KT P6SM FEW100
     FM021000 VRB04KT P6SM FEW200
     FM021700 23015G25KT P6SM SCT200=



000
FTUS45 KTWC 011100
TAFOLS
TAF
KOLS 011136Z 0112/0212 VRB04KT P6SM FEW250
     FM011600 18012G18KT P6SM FEW250
     FM011900 22017G25KT P6SM SKC
     FM020200 24007KT P6SM FEW250
     FM020600 VRB03KT P6SM SCT250=



000
FTUS45 KTWC 011100
TAFDUG
TAF
KDUG 011136Z 0112/0212 13008KT P6SM FEW250
     FM011700 21012G18KT P6SM SKC
     FM012100 25017G25KT P6SM SKC
     FM020200 22008KT P6SM FEW250
     FM020800 11007KT P6SM FEW250=



000
FTUS45 KTWC 011100
TAFTUS
TAF
KTUS 011136Z 0112/0212 17010KT P6SM FEW250
     FM011700 20012G18KT P6SM SKC
     FM012100 24016G24KT P6SM SKC
     FM020200 25010KT P6SM FEW250
     FM020800 16007KT P6SM SCT250=



000
FTUS45 KTWC 011100
TAFOLS
TAF
KOLS 011136Z 0112/0212 VRB04KT P6SM FEW250
     FM011600 18012G18KT P6SM FEW250
     FM011900 22017G25KT P6SM SKC
     FM020200 24007KT P6SM FEW250
     FM020600 VRB03KT P6SM SCT250=



000
FTUS45 KTWC 011100
TAFDUG
TAF
KDUG 011136Z 0112/0212 13008KT P6SM FEW250
     FM011700 21012G18KT P6SM SKC
     FM012100 25017G25KT P6SM SKC
     FM020200 22008KT P6SM FEW250
     FM020800 11007KT P6SM FEW250=



000
FTUS45 KTWC 011100
TAFOLS
TAF
KOLS 011136Z 0112/0212 VRB04KT P6SM FEW250
     FM011600 18012G18KT P6SM FEW250
     FM011900 22017G25KT P6SM SKC
     FM020200 24007KT P6SM FEW250
     FM020600 VRB03KT P6SM SCT250=



000
FTUS45 KTWC 011100
TAFOLS
TAF
KOLS 011136Z 0112/0212 VRB04KT P6SM FEW250
     FM011600 18012G18KT P6SM FEW250
     FM011900 22017G25KT P6SM SKC
     FM020200 24007KT P6SM FEW250
     FM020600 VRB03KT P6SM SCT250=



000
FTUS45 KTWC 011100
TAFTUS
TAF
KTUS 011136Z 0112/0212 17010KT P6SM FEW250
     FM011700 20012G18KT P6SM SKC
     FM012100 24016G24KT P6SM SKC
     FM020200 25010KT P6SM FEW250
     FM020800 16007KT P6SM SCT250=



000
FTUS45 KTWC 010500
TAFDUG
TAF
KDUG 010520Z 0106/0206 16009KT P6SM SCT100 SCT200
     FM010800 VRB04KT P6SM SCT200
     FM011800 24015G27KT P6SM SKC
     FM020200 25011KT P6SM FEW250=



000
FTUS45 KTWC 010500
TAFOLS
TAF
KOLS 010520Z 0106/0206 16007KT P6SM SCT110 SCT200
     FM010800 VRB04KT P6SM SCT250
     FM011800 22013G23KT P6SM SKC
     FM020300 18008KT P6SM FEW250=



000
FTUS45 KTWC 010500
TAFTUS
TAF
KTUS 010520Z 0106/0206 17009KT P6SM FEW100 SCT200
     FM010800 15007KT P6SM SCT250
     FM011800 24012G23KT P6SM SKC
     FM020200 24010KT P6SM FEW250=



000
FTUS45 KTWC 010500
TAFOLS
TAF
KOLS 010520Z 0106/0206 16007KT P6SM SCT110 SCT200
     FM010800 VRB04KT P6SM SCT250
     FM011800 22013G23KT P6SM SKC
     FM020300 18008KT P6SM FEW250=



000
FTUS45 KTWC 010200 AAB
TAFDUG
TAF AMD
KDUG 010208Z 0102/0124 24010G16KT P6SM SCT100 BKN200
     FM010400 17007KT P6SM SCT100 BKN200
     FM010800 VRB04KT P6SM SCT200
     FM011900 24015G27KT P6SM FEW250=



000
FTUS45 KTWC 010200 AAA
TAFTUS
TAF AMD
KTUS 010204Z 0102/0124 20007G14KT P6SM SCT100 SCT200
     FM010400 18007KT P6SM FEW100 SCT200
     FM010800 15007KT P6SM SCT250
     FM011900 24012G23KT P6SM FEW250=



000
FTUS45 KTWC 010200 AAA
TAFOLS
TAF AMD
KOLS 010201Z 0102/0124 16007KT P6SM SCT110 SCT250
     FM010800 VRB04KT P6SM SCT250
     FM011800 22013G23KT P6SM FEW250=



000
FTUS45 KTWC 010200 AAA
TAFOLS
TAF AMD
KOLS 010201Z 0102/0124 16007KT P6SM SCT110 SCT250
     FM010800 VRB04KT P6SM SCT250
     FM011800 22013G23KT P6SM FEW250=



000
FTUS45 KTWC 010200 AAA
TAFOLS
TAF AMD
KOLS 010201Z 0102/0124 16007KT P6SM SCT110 SCT250
     FM010800 VRB04KT P6SM SCT250
     FM011800 22013G23KT P6SM FEW250=



000
FTUS45 KTWC 010200 AAA
TAFOLS
TAF AMD
KOLS 010201Z 0102/0124 16007KT P6SM SCT110 SCT250
     FM010800 VRB04KT P6SM SCT250
     FM011800 22013G23KT P6SM FEW250=



000
FTUS45 KTWC 010000 AAA
TAFDUG
TAF AMD
KDUG 010025Z 0100/0124 30012G21KT P6SM VCTS SCT100CB BKN200
      TEMPO 0100/0102 09012G18KT
     FM010200 28012KT P6SM SCT100 BKN200
     FM010800 VRB04KT P6SM SCT200
     FM011900 24015G27KT P6SM FEW250=



000
FTUS45 KTWC 312300
TAFDUG
TAF
KDUG 312320Z 0100/0124 30012G21KT P6SM VCTS SCT100CB BKN200
     FM010200 28012KT P6SM SCT100 BKN200
     FM010800 VRB04KT P6SM SCT200
     FM011900 24015G27KT P6SM FEW250=



000
FTUS45 KTWC 312300
TAFOLS
TAF
KOLS 312320Z 0100/0124 23010G18KT P6SM VCTS SCT110CB SCT200
      TEMPO 0100/0102 -RA BKN100
     FM010300 18007KT P6SM SCT250
     FM011800 22013G23KT P6SM FEW250=



000
FTUS45 KTWC 312300
TAFOLS
TAF
KOLS 312320Z 0100/0124 23010G18KT P6SM VCTS SCT110CB SCT200
      TEMPO 0100/0102 -RA BKN100
     FM010300 18007KT P6SM SCT250
     FM011800 22013G23KT P6SM FEW250=



000
FTUS45 KTWC 312300
TAFTUS
TAF
KTUS 312320Z 0100/0124 28009G18KT P6SM SCT120
     FM010300 25007KT P6SM SCT200
     FM010800 15007KT P6SM SCT250
     FM011900 24012G23KT P6SM FEW250=



000
FTUS45 KTWC 312000 AAB
TAFOLS
TAF AMD
KOLS 312041Z 3121/0118 27010G20KT P6SM BKN100
      TEMPO 3121/3123 VRB15G25KT P6SM -TSRA OVC080CB
     FM312300 26011G19KT P6SM SCT110 SCT200
     FM010300 18007KT P6SM SCT200=



000
FTUS45 KTWC 312000 AAB
TAFOLS
TAF AMD
KOLS 312041Z 3121/0118 27010G20KT P6SM BKN100
      TEMPO 3121/3123 VRB15G25KT P6SM -TSRA OVC080CB
     FM312300 26011G19KT P6SM SCT110 SCT200
     FM010300 18007KT P6SM SCT200=



000
FTUS45 KTWC 312000 AAA
TAFOLS
TAF AMD
KOLS 312009Z 3120/0118 27010G20KT P6SM BKN100
      TEMPO 3120/3122 VRB15G25KT P6SM -SHRA OVC080
     FM312200 26011G19KT P6SM SCT110 SCT200
     FM010300 18007KT P6SM SCT200=



000
FTUS45 KTWC 311900 AAA
TAFDUG
TAF AMD
KDUG 311928Z 3119/0118 19012G21KT P6SM SCT100 BKN200
     FM312200 26012G21KT P6SM VCSH SCT100 BKN200
     FM010300 25009KT P6SM FEW100 SCT150
     FM010800 VRB04KT P6SM SCT200=



000
FTUS45 KTWC 311900 AAA
TAFDUG
TAF AMD
KDUG 311928Z 3119/0118 19012G21KT P6SM SCT100 BKN200
     FM312200 26012G21KT P6SM VCSH SCT100 BKN200
     FM010300 25009KT P6SM FEW100 SCT150
     FM010800 VRB04KT P6SM SCT200=



000
FTUS45 KTWC 311700
TAFTUS
TAF
KTUS 311731Z 3118/0118 28007KT P6SM SKC
     FM312000 32010G17KT P6SM SCT120
     FM010300 23008KT P6SM SCT200
     FM010900 15007KT P6SM SCT200=



000
FTUS45 KTWC 311700
TAFOLS
TAF
KOLS 311731Z 3118/0118 21011KT P6SM FEW110 SCT200
     FM311900 27011G18KT P6SM SCT110 SCT200
     FM312200 26011G19KT P6SM VCSH SCT110 SCT200
     FM010300 18007KT P6SM SCT200=



000
FTUS45 KTWC 311700
TAFOLS
TAF
KOLS 311731Z 3118/0118 21011KT P6SM FEW110 SCT200
     FM311900 27011G18KT P6SM SCT110 SCT200
     FM312200 26011G19KT P6SM VCSH SCT110 SCT200
     FM010300 18007KT P6SM SCT200=



000
FTUS45 KTWC 311700
TAFDUG
TAF
KDUG 311731Z 3118/0118 21011KT P6SM SCT100 BKN200
     FM312000 28011G19KT P6SM SCT100 BKN150
     FM312200 28011G20KT P6SM VCSH SCT100 BKN150
     FM010300 25009KT P6SM FEW100 SCT150
     FM010800 VRB04KT P6SM SCT200=



000
FTUS45 KTWC 311700
TAFDUG
TAF
KDUG 311731Z 3118/0118 21011KT P6SM SCT100 BKN200
     FM312000 28011G19KT P6SM SCT100 BKN150
     FM312200 28011G20KT P6SM VCSH SCT100 BKN150
     FM010300 25009KT P6SM FEW100 SCT150
     FM010800 VRB04KT P6SM SCT200=



000
FTUS45 KTWC 311700
TAFOLS
TAF
KOLS 311731Z 3118/0118 21011KT P6SM FEW110 SCT200
     FM311900 27011G18KT P6SM SCT110 SCT200
     FM312200 26011G19KT P6SM VCSH SCT110 SCT200
     FM010300 18007KT P6SM SCT200=



000
FTUS45 KTWC 311700
TAFTUS
TAF
KTUS 311731Z 3118/0118 28007KT P6SM SKC
     FM312000 32010G17KT P6SM SCT120
     FM010300 23008KT P6SM SCT200
     FM010900 15007KT P6SM SCT200=



000
FTUS45 KTWC 311300 AAA
TAFTUS
TAF AMD
KTUS 311312Z 3113/0112 15005KT P6SM FEW120 SCT200
     FM311900 32010KT P6SM SCT090
     FM010400 17006KT P6SM SKC=



000
FTUS45 KTWC 311300 AAA
TAFTUS
TAF AMD
KTUS 311312Z 3113/0112 15005KT P6SM FEW120 SCT200
     FM311900 32010KT P6SM SCT090
     FM010400 17006KT P6SM SKC=



000
FTUS45 KTWC 311100
TAFOLS
TAF
KOLS 311120Z 3112/0112 11004KT P6SM SCT120 BKN200
     FM311900 27012G21KT P6SM SCT080 BKN120
     FM010300 14005KT P6SM SKC=



000
FTUS45 KTWC 311100
TAFDUG
TAF
KDUG 311120Z 3112/0112 21006KT P6SM SCT110 BKN200
     FM312000 30012G22KT P6SM SCT070 BKN150
     FM010300 33010KT P6SM FEW070 SCT150
     FM010800 VRB04KT P6SM SKC=



000
FTUS45 KTWC 311100
TAFOLS
TAF
KOLS 311120Z 3112/0112 11004KT P6SM SCT120 BKN200
     FM311900 27012G21KT P6SM SCT080 BKN120
     FM010300 14005KT P6SM SKC=



000
FTUS45 KTWC 311100
TAFTUS
TAF
KTUS 311120Z 3112/0112 15005KT P6SM SCT120 BKN200
     FM311900 32010KT P6SM SCT090
     FM010400 17006KT P6SM SKC=



000
FTUS45 KTWC 310500 RRA
TAFDUG
TAF
KDUG 310540Z 3106/0106 35007KT P6SM SCT070 BKN110
     FM311000 VRB04KT P6SM FEW080 BKN110 OVC150
     FM312000 30012G20KT P6SM SCT070 BKN150=



000
FTUS45 KTWC 310500 RRA
TAFOLS
TAF
KOLS 310540Z 3106/0106 17007KT P6SM SCT070 BKN110
     FM311000 VRB03KT P6SM BKN110 OVC180
     FM311900 27013G21KT P6SM SCT080=



000
FTUS45 KTWC 310500 RRA
TAFTUS
TAF
KTUS 310540Z 3106/0106 23005KT P6SM FEW080 BKN120 OVC180
     FM310800 14007KT P6SM BKN120 OVC180
     FM311900 32008KT P6SM SCT090=



000
FTUS45 KTWC 310500 RRA
TAFDUG
TAF
KDUG 310540Z 3106/0106 35007KT P6SM SCT070 BKN110
     FM311000 VRB04KT P6SM FEW080 BKN110 OVC150
     FM312000 30012G20KT P6SM SCT070 BKN150=



000
FTUS45 KTWC 310500 RRA
TAFOLS
TAF
KOLS 310540Z 3106/0106 17007KT P6SM SCT070 BKN110
     FM311000 VRB03KT P6SM BKN110 OVC180
     FM311900 27013G21KT P6SM SCT080=



000
FTUS45 KTWC 310500 RRA
TAFTUS
TAF
KTUS 310540Z 3106/0106 23005KT P6SM FEW080 BKN120 OVC180
     FM310800 14007KT P6SM BKN120 OVC180
     FM311900 32008KT P6SM SCT090=



000
FTUS45 KTWC 310500 RRA
TAFOLS
TAF
KOLS 310540Z 3106/0106 17007KT P6SM SCT070 BKN110
     FM311000 VRB03KT P6SM BKN110 OVC180
     FM311900 27013G21KT P6SM SCT080=



000
FTUS45 KTWC 310500 RRA
TAFOLS
TAF
KOLS 310540Z 3106/0106 17007KT P6SM SCT070 BKN110
     FM311000 VRB03KT P6SM BKN110 OVC180
     FM311900 27013G21KT P6SM SCT080=



000
FTUS45 KTWC 302300
TAFDUG
TAF
KDUG 302321Z 3100/3124 25010KT P6SM BKN080 BKN100
     FM310200 35007KT P6SM VCSH SCT060 BKN080
     FM311000 VRB04KT P6SM FEW060 SCT080 BKN100
     FM312000 30012G20KT P6SM SCT070 BKN150=



000
FTUS45 KTWC 302300
TAFTUS
TAF
KTUS 302321Z 3100/3124 31011KT P6SM SCT090 BKN120
     FM310200 23007KT P6SM VCSH SCT080 BKN120
     FM310600 14007KT P6SM FEW080 BKN120 OVC180
     FM311900 32008KT P6SM SCT090=



000
FTUS45 KTWC 302300
TAFOLS
TAF
KOLS 302321Z 3100/3124 22010KT P6SM SCT080 BKN110
     FM310200 04005KT P6SM VCSH SCT070 BKN110
     FM310600 VRB03KT P6SM FEW070 BKN110 OVC180
     FM311900 27013G21KT P6SM SCT080=



000
FTUS45 KTWC 302300
TAFOLS
TAF
KOLS 302321Z 3100/3124 22010KT P6SM SCT080 BKN110
     FM310200 04005KT P6SM VCSH SCT070 BKN110
     FM310600 VRB03KT P6SM FEW070 BKN110 OVC180
     FM311900 27013G21KT P6SM SCT080=



000
FTUS45 KTWC 302300
TAFOLS
TAF
KOLS 302321Z 3100/3124 22010KT P6SM SCT080 BKN110
     FM310200 04005KT P6SM VCSH SCT070 BKN110
     FM310600 VRB03KT P6SM FEW070 BKN110 OVC180
     FM311900 27013G21KT P6SM SCT080=



000
FTUS45 KTWC 302300
TAFTUS
TAF
KTUS 302321Z 3100/3124 31011KT P6SM SCT090 BKN120
     FM310200 23007KT P6SM VCSH SCT080 BKN120
     FM310600 14007KT P6SM FEW080 BKN120 OVC180
     FM311900 32008KT P6SM SCT090=



000
FTUS45 KTWC 302300
TAFDUG
TAF
KDUG 302321Z 3100/3124 25010KT P6SM BKN080 BKN100
     FM310200 35007KT P6SM VCSH SCT060 BKN080
     FM311000 VRB04KT P6SM FEW060 SCT080 BKN100
     FM312000 30012G20KT P6SM SCT070 BKN150=



000
FTUS45 KTWC 302300
TAFOLS
TAF
KOLS 302321Z 3100/3124 22010KT P6SM SCT080 BKN110
     FM310200 04005KT P6SM VCSH SCT070 BKN110
     FM310600 VRB03KT P6SM FEW070 BKN110 OVC180
     FM311900 27013G21KT P6SM SCT080=



000
FTUS45 KTWC 302000 AAA
TAFOLS
TAF AMD
KOLS 302004Z 3020/3118 24008KT P6SM SCT100 BKN140
     FM302300 23012G20KT P6SM VCSH BKN100 OVC120
     FM310300 VRB03KT P6SM SCT100 BKN140=



000
FTUS45 KTWC 302000 AAA
TAFOLS
TAF AMD
KOLS 302004Z 3020/3118 24008KT P6SM SCT100 BKN140
     FM302300 23012G20KT P6SM VCSH BKN100 OVC120
     FM310300 VRB03KT P6SM SCT100 BKN140=



000
FTUS45 KTWC 302000 AAA
TAFOLS
TAF AMD
KOLS 302004Z 3020/3118 24008KT P6SM SCT100 BKN140
     FM302300 23012G20KT P6SM VCSH BKN100 OVC120
     FM310300 VRB03KT P6SM SCT100 BKN140=



000
FTUS45 KTWC 302000 AAA
TAFOLS
TAF AMD
KOLS 302004Z 3020/3118 24008KT P6SM SCT100 BKN140
     FM302300 23012G20KT P6SM VCSH BKN100 OVC120
     FM310300 VRB03KT P6SM SCT100 BKN140=



000
FTUS45 KTWC 301900 AAA
TAFDUG
TAF AMD
KDUG 301956Z 3020/3118 VRB04KT P6SM SCT100 OVC150
     FM302300 26010G20KT P6SM VCSH BKN080 BKN100
     FM310400 VRB04KT P6SM SCT080 BKN120=



000
FTUS45 KTWC 301900 AAA
TAFDUG
TAF AMD
KDUG 301956Z 3020/3118 VRB04KT P6SM SCT100 OVC150
     FM302300 26010G20KT P6SM VCSH BKN080 BKN100
     FM310400 VRB04KT P6SM SCT080 BKN120=



000
FTUS45 KTWC 301700
TAFOLS
TAF
KOLS 301720Z 3018/3118 VRB03KT P6SM FEW120 BKN150
     FM302000 24012G20KT P6SM SCT100 BKN140
     FM302300 23012G20KT P6SM VCSH BKN100 OVC120
     FM310300 VRB03KT P6SM SCT100 BKN140=



000
FTUS45 KTWC 301700
TAFOLS
TAF
KOLS 301720Z 3018/3118 VRB03KT P6SM FEW120 BKN150
     FM302000 24012G20KT P6SM SCT100 BKN140
     FM302300 23012G20KT P6SM VCSH BKN100 OVC120
     FM310300 VRB03KT P6SM SCT100 BKN140=



000
FTUS45 KTWC 301700
TAFDUG
TAF
KDUG 301720Z 3018/3118 VRB04KT P6SM SCT100 OVC150
     FM301900 23010G15KT P6SM SCT080 BKN110
     FM302300 26010G20KT P6SM VCSH BKN080 BKN100
     FM310400 VRB04KT P6SM SCT080 BKN120=



000
FTUS45 KTWC 301700
TAFTUS
TAF
KTUS 301720Z 3018/3118 14006KT P6SM FEW140 BKN200
     FM302000 25007KT P6SM SCT100 BKN150
     FM302200 31008KT P6SM SCT100 BKN150
     FM310100 23007KT P6SM VCSH SCT080 BKN120
     FM310400 14006KT P6SM SCT110 SCT150=



000
FTUS45 KTWC 301700
TAFOLS
TAF
KOLS 301720Z 3018/3118 VRB03KT P6SM FEW120 BKN150
     FM302000 24012G20KT P6SM SCT100 BKN140
     FM302300 23012G20KT P6SM VCSH BKN100 OVC120
     FM310300 VRB03KT P6SM SCT100 BKN140=



000
FTUS45 KTWC 301700
TAFOLS
TAF
KOLS 301720Z 3018/3118 VRB03KT P6SM FEW120 BKN150
     FM302000 24012G20KT P6SM SCT100 BKN140
     FM302300 23012G20KT P6SM VCSH BKN100 OVC120
     FM310300 VRB03KT P6SM SCT100 BKN140=



000
FTUS45 KTWC 301700
TAFTUS
TAF
KTUS 301720Z 3018/3118 14006KT P6SM FEW140 BKN200
     FM302000 25007KT P6SM SCT100 BKN150
     FM302200 31008KT P6SM SCT100 BKN150
     FM310100 23007KT P6SM VCSH SCT080 BKN120
     FM310400 14006KT P6SM SCT110 SCT150=



000
FTUS45 KTWC 301700
TAFDUG
TAF
KDUG 301720Z 3018/3118 VRB04KT P6SM SCT100 OVC150
     FM301900 23010G15KT P6SM SCT080 BKN110
     FM302300 26010G20KT P6SM VCSH BKN080 BKN100
     FM310400 VRB04KT P6SM SCT080 BKN120=



000
FTUS45 KTWC 301100
TAFDUG
TAF
KDUG 301120Z 3012/3112 VRB04KT P6SM SCT120 OVC200
     FM301900 24011G18KT P6SM SCT080 BKN110
     FM310400 VRB04KT P6SM SCT080 BKN120=



000
FTUS45 KTWC 301100
TAFOLS
TAF
KOLS 301120Z 3012/3112 VRB03KT P6SM FEW140 BKN200
     FM302000 24012G20KT P6SM SCT100 BKN140
     FM310300 VRB03KT P6SM SCT100 BKN140=



000
FTUS45 KTWC 301100
TAFTUS
TAF
KTUS 301120Z 3012/3112 14007KT P6SM FEW150 BKN200
     FM302000 30008KT P6SM SCT110 BKN150
     FM310600 14006KT P6SM SCT110 SCT150=



000
FTUS45 KTWC 301100
TAFDUG
TAF
KDUG 301120Z 3012/3112 VRB04KT P6SM SCT120 OVC200
     FM301900 24011G18KT P6SM SCT080 BKN110
     FM310400 VRB04KT P6SM SCT080 BKN120=



000
FTUS45 KTWC 301100
TAFOLS
TAF
KOLS 301120Z 3012/3112 VRB03KT P6SM FEW140 BKN200
     FM302000 24012G20KT P6SM SCT100 BKN140
     FM310300 VRB03KT P6SM SCT100 BKN140=



000
FTUS45 KTWC 301100
TAFOLS
TAF
KOLS 301120Z 3012/3112 VRB03KT P6SM FEW140 BKN200
     FM302000 24012G20KT P6SM SCT100 BKN140
     FM310300 VRB03KT P6SM SCT100 BKN140=



000
FTUS45 KTWC 301100
TAFOLS
TAF
KOLS 301120Z 3012/3112 VRB03KT P6SM FEW140 BKN200
     FM302000 24012G20KT P6SM SCT100 BKN140
     FM310300 VRB03KT P6SM SCT100 BKN140=



000
FTUS45 KTWC 301100
TAFTUS
TAF
KTUS 301120Z 3012/3112 14007KT P6SM FEW150 BKN200
     FM302000 30008KT P6SM SCT110 BKN150
     FM310600 14006KT P6SM SCT110 SCT150=



000
FTUS45 KTWC 300500
TAFOLS
TAF
KOLS 300522Z 3006/3106 08007KT P6SM BKN250
     FM301000 VRB03KT P6SM FEW140 BKN200
     FM302000 24012G20KT P6SM SCT090 BKN140=



000
FTUS45 KTWC 300500
TAFDUG
TAF
KDUG 300522Z 3006/3106 04008KT P6SM BKN200
     FM301000 VRB04KT P6SM SCT120 OVC200
     FM301900 24011G18KT P6SM SCT060 BKN090=



000
FTUS45 KTWC 300500
TAFOLS
TAF
KOLS 300522Z 3006/3106 08007KT P6SM BKN250
     FM301000 VRB03KT P6SM FEW140 BKN200
     FM302000 24012G20KT P6SM SCT090 BKN140=



000
FTUS45 KTWC 300500
TAFTUS
TAF
KTUS 300522Z 3006/3106 22005KT P6SM BKN200
     FM300800 14007KT P6SM FEW150 OVC200
     FM302000 30010KT P6SM SCT100 BKN150=



000
FTUS45 KTWC 300500
TAFOLS
TAF
KOLS 300522Z 3006/3106 08007KT P6SM BKN250
     FM301000 VRB03KT P6SM FEW140 BKN200
     FM302000 24012G20KT P6SM SCT090 BKN140=



000
FTUS45 KTWC 300500
TAFTUS
TAF
KTUS 300522Z 3006/3106 22005KT P6SM BKN200
     FM300800 14007KT P6SM FEW150 OVC200
     FM302000 30010KT P6SM SCT100 BKN150=



000
FTUS45 KTWC 300500
TAFDUG
TAF
KDUG 300522Z 3006/3106 04008KT P6SM BKN200
     FM301000 VRB04KT P6SM SCT120 OVC200
     FM301900 24011G18KT P6SM SCT060 BKN090=



000
FTUS45 KTWC 300500
TAFOLS
TAF
KOLS 300522Z 3006/3106 08007KT P6SM BKN250
     FM301000 VRB03KT P6SM FEW140 BKN200
     FM302000 24012G20KT P6SM SCT090 BKN140=



    US Dept of Commerce
    National Oceanic and Atmospheric Administration
    National Weather Service
    1325 East West Highway
    Silver Spring, MD 20910
    Page Author: NWS Internet Services Team
Disclaimer
Information Quality
Credits
Glossary
Privacy Policy
Freedom of Information Act (FOIA)
About Us
Career Opportunities